Time;durP1;ratioP1;P1;durP2;ratioP2;P2;SDS_P1;SDS_P2;PMS_P1;PMS_P2;Temp;Humidity;BMP_temperature;BMP_pressure;BME280_temperature;BME280_humidity;BME280_pressure;Samples;Min_cycle;Max_cycle;Signal;HPM_P1;HPM_P2
2022/08/14 04:02:47;;;;;;;;;;;;;;;17.40;50.34;98311.13;2599069;47;20798;-67
2022/08/14 04:05:21;;;;;;;;;;;;;;;17.44;50.56;98314.91;2618244;54;19945;-68
2022/08/14 04:07:51;;;;;;;;;;;;;;;17.43;50.47;98315.13;2618770;31;20522;-68
2022/08/14 04:10:41;;;;;;;;;;;;;;;17.43;50.34;98312.47;2618485;54;19958;-67
2022/08/14 04:13:10;;;;;;;;;;;;;;;17.44;50.17;98314.09;2617698;47;20456;-66
2022/08/14 04:15:41;;;;;;;;;;;;;;;17.44;50.15;98317.59;2618561;54;19947;-67
2022/08/14 04:18:32;;;;;;;;;;;;;;;17.43;50.15;98312.47;2618931;39;20311;-66
2022/08/14 04:21:03;;;;;;;;;;;;;;;17.37;50.82;98311.59;2618298;54;19968;-66
2022/08/14 04:23:34;;;;;;;;;;;;;;;17.39;50.70;98311.34;2618156;54;19938;-66
2022/08/14 04:26:04;;;;;;;;;;;;;;;17.40;50.65;98308.44;2618140;54;20045;-66
2022/08/14 04:28:39;;;;;;;;;;;;;;;17.29;50.98;98312.84;2618116;54;19939;-66
2022/08/14 04:31:28;;;;;;;;;;;;;;;17.23;51.33;98308.50;2618352;54;19939;-66
2022/08/14 04:34:20;;;;;;;;;;;;;;;17.30;50.98;98308.31;2618197;54;19979;-67
2022/08/14 04:45:20;;;;;;;;;;;;;;;17.39;50.80;98314.84;2618060;54;19947;-66
2022/08/14 04:50:36;;;;;;;;;;;;;;;17.34;51.29;98314.78;2618050;54;19946;-66
2022/08/14 04:53:14;;;;;;;;;;;;;;;17.42;51.41;98309.00;2617522;54;19945;-66
2022/08/14 04:55:46;;;;;;;;;;;;;;;17.37;51.32;98308.13;2617519;54;19957;-66
2022/08/14 04:58:20;;;;;;;;;;;;;;;17.52;51.61;98314.47;2617872;54;19947;-65
2022/08/14 05:01:02;;;;;;;;;;;;;;;17.64;51.03;98314.34;2618089;54;19950;-65
2022/08/14 05:03:33;;;;;;;;;;;;;;;17.62;50.91;98313.78;2618158;54;19939;-66
2022/08/14 05:06:09;;;;;;;;;;;;;;;17.55;50.91;98316.66;2617947;54;19950;-67
2022/08/14 05:08:59;;;;;;;;;;;;;;;17.62;51.64;98311.09;2617447;47;19943;-65
2022/08/14 05:11:32;;;;;;;;;;;;;;;17.72;50.97;98318.44;2618156;54;20461;-65
2022/08/14 05:14:04;;;;;;;;;;;;;;;17.83;50.89;98321.00;2618090;54;19947;-66
2022/08/14 05:16:56;;;;;;;;;;;;;;;17.88;50.88;98314.91;2617952;54;20078;-67
2022/08/14 05:19:29;;;;;;;;;;;;;;;17.91;50.60;98321.59;2619500;47;19966;-67
2022/08/14 05:22:03;;;;;;;;;;;;;;;17.93;50.89;98317.63;2625328;54;19946;-67
2022/08/14 05:24:47;;;;;;;;;;;;;;;18.07;50.81;98318.81;2623781;54;19947;-67
2022/08/14 05:27:20;;;;;;;;;;;;;;;18.05;50.56;98317.47;2620072;54;19951;-67
2022/08/14 05:29:52;;;;;;;;;;;;;;;18.14;50.79;98313.28;2617902;54;19945;-67
2022/08/14 05:32:23;;;;;;;;;;;;;;;18.23;50.34;98319.78;2617888;54;19939;-67
2022/08/14 05:34:57;;;;;;;;;;;;;;;18.20;50.22;98306.91;2617818;54;19961;-67
2022/08/14 05:37:30;;;;;;;;;;;;;;;18.24;50.25;98302.66;2617631;54;20435;-67
2022/08/14 05:40:00;;;;;;;;;;;;;;;18.22;50.16;98304.00;2617808;54;19947;-67
2022/08/14 05:42:30;;;;;;;;;;;;;;;18.37;50.31;98301.47;2617884;54;19961;-67
2022/08/14 05:45:20;;;;;;;;;;;;;;;18.36;50.50;98294.47;2618038;54;20029;-65
2022/08/14 05:47:50;;;;;;;;;;;;;;;18.47;50.39;98298.03;2617783;54;19970;-67
2022/08/14 05:50:20;;;;;;;;;;;;;;;18.59;50.05;98297.88;2619173;54;19954;-66
2022/08/14 05:52:53;;;;;;;;;;;;;;;18.71;49.96;98291.28;2619383;54;20430;-67
2022/08/14 05:55:23;;;;;;;;;;;;;;;18.87;50.22;98292.19;2618566;54;19950;-67
2022/08/14 05:57:54;;;;;;;;;;;;;;;19.00;49.50;98280.22;2618236;54;19946;-66
2022/08/14 06:00:28;;;;;;;;;;;;;;;19.02;49.90;98270.88;2618252;54;19946;-66
2022/08/14 06:03:07;;;;;;;;;;;;;;;19.07;50.12;98272.75;2617595;54;19949;-67
2022/08/14 06:05:37;;;;;;;;;;;;;;;19.19;49.70;98264.53;2618641;39;20325;-67
2022/08/14 06:08:15;;;;;;;;;;;;;;;19.31;49.62;98267.78;2617830;54;19939;-67
2022/08/14 06:11:04;;;;;;;;;;;;;;;19.38;49.59;98262.16;2618045;54;19981;-67
2022/08/14 06:13:35;;;;;;;;;;;;;;;19.56;49.44;98256.34;2617874;54;19953;-67
2022/08/14 06:16:16;;;;;;;;;;;;;;;19.58;49.91;98253.38;2617383;47;19973;-68
2022/08/14 06:18:47;;;;;;;;;;;;;;;19.73;49.78;98251.56;2618100;54;19938;-69
2022/08/14 06:21:21;;;;;;;;;;;;;;;19.87;49.18;98253.75;2617690;51;19988;-66
2022/08/14 06:23:54;;;;;;;;;;;;;;;20.00;49.58;98245.16;2618016;54;19939;-67
2022/08/14 06:26:23;;;;;;;;;;;;;;;20.14;48.89;98248.13;2618407;54;19939;-67
2022/08/14 06:28:58;;;;;;;;;;;;;;;20.12;48.77;98245.72;2618074;54;19953;-67
2022/08/14 06:31:28;;;;;;;;;;;;;;;20.23;49.47;98247.31;2618038;54;19950;-67
2022/08/14 06:33:59;;;;;;;;;;;;;;;20.40;48.74;98241.69;2617717;47;19946;-67
2022/08/14 06:36:48;;;;;;;;;;;;;;;20.52;48.63;98233.38;2618096;54;19950;-66
2022/08/14 06:39:24;;;;;;;;;;;;;;;20.48;48.47;98230.41;2618141;54;19939;-66
2022/08/14 06:42:06;;;;;;;;;;;;;;;20.62;48.76;98230.69;2617440;54;19943;-66
2022/08/14 06:44:56;;;;;;;;;;;;;;;20.72;48.44;98227.16;2617512;54;19962;-67
2022/08/14 06:47:26;;;;;;;;;;;;;;;20.89;48.82;98224.16;2618212;39;20349;-66
2022/08/14 06:49:57;;;;;;;;;;;;;;;20.98;48.64;98212.59;2617519;54;19951;-67
2022/08/14 06:52:26;;;;;;;;;;;;;;;21.15;48.34;98212.25;2620854;54;19954;-66
2022/08/14 06:55:00;;;;;;;;;;;;;;;21.28;48.55;98205.47;2620708;54;20457;-66
2022/08/14 06:57:37;;;;;;;;;;;;;;;21.44;48.73;98208.91;2617772;54;19946;-66
2022/08/14 07:00:08;;;;;;;;;;;;;;;21.56;48.85;98208.59;2618056;54;19939;-66
2022/08/14 07:05:47;;;;;;;;;;;;;;;21.96;48.95;98208.31;2617361;54;19954;-66
2022/08/14 07:08:28;;;;;;;;;;;;;;;22.16;48.63;98204.66;2617557;54;19947;-66
2022/08/14 07:11:03;;;;;;;;;;;;;;;22.26;49.02;98203.78;2618106;54;19947;-66
2022/08/14 07:13:33;;;;;;;;;;;;;;;22.43;48.78;98206.84;2617671;54;19951;-66
2022/08/14 07:16:04;;;;;;;;;;;;;;;22.56;48.39;98208.06;2618119;47;19949;-66
2022/08/14 07:18:36;;;;;;;;;;;;;;;22.70;48.09;98209.00;2618569;54;19953;-65
2022/08/14 07:21:09;;;;;;;;;;;;;;;22.81;48.18;98214.25;2618591;54;20435;-66
2022/08/14 07:23:39;;;;;;;;;;;;;;;22.86;47.54;98214.19;2618642;54;19938;-66
2022/08/14 07:26:15;;;;;;;;;;;;;;;22.88;47.33;98212.03;2618336;54;19954;-66
2022/08/14 07:28:45;;;;;;;;;;;;;;;23.00;47.43;98198.97;2618467;54;19945;-66
2022/08/14 07:31:14;;;;;;;;;;;;;;;23.09;46.72;98199.13;2618452;54;19958;-67
2022/08/14 07:33:45;;;;;;;;;;;;;;;23.18;46.52;98197.41;2618231;54;20022;-68
2022/08/14 07:36:19;;;;;;;;;;;;;;;23.25;46.03;98197.84;2620131;54;19975;-66
2022/08/14 07:38:59;;;;;;;;;;;;;;;23.36;46.01;98196.63;2618439;54;19993;-67
2022/08/14 07:41:33;;;;;;;;;;;;;;;23.37;45.97;98195.53;2618304;54;19947;-67
2022/08/14 07:44:04;;;;;;;;;;;;;;;23.49;46.26;98200.50;2618974;54;19966;-70
2022/08/14 07:46:54;;;;;;;;;;;;;;;23.77;44.89;98185.28;2618316;54;19939;-65
2022/08/14 07:49:23;;;;;;;;;;;;;;;23.90;44.51;98186.44;2619404;54;19953;-67
2022/08/14 07:51:52;;;;;;;;;;;;;;;;;;2624641;54;19953;-69
2022/08/14 07:54:22;;;;;;;;;;;;;;;24.14;43.99;98184.41;2624704;54;19943;-66
2022/08/14 07:57:02;;;;;;;;;;;;;;;24.24;43.39;98175.31;2623954;54;19938;-65
2022/08/14 07:59:40;;;;;;;;;;;;;;;24.29;42.74;98171.72;2618174;39;20361;-65
2022/08/14 08:02:18;;;;;;;;;;;;;;;24.44;42.66;98174.97;2618296;54;19950;-66
2022/08/14 08:04:51;;;;;;;;;;;;;;;24.57;41.88;98178.00;2618305;54;19947;-67
2022/08/14 08:07:23;;;;;;;;;;;;;;;24.71;40.85;98174.22;2618133;54;20469;-66
2022/08/14 08:09:58;;;;;;;;;;;;;;;24.84;41.01;98177.22;2618356;54;19953;-65
2022/08/14 08:12:32;;;;;;;;;;;;;;;24.95;40.90;98179.41;2618312;54;19939;-65
2022/08/14 08:15:02;;;;;;;;;;;;;;;25.11;40.31;98185.34;2618348;54;19946;-66
2022/08/14 08:17:38;;;;;;;;;;;;;;;25.25;39.53;98192.63;2617321;54;19950;-66
2022/08/14 08:20:24;;;;;;;;;;;;;;;25.43;38.29;98189.78;2618197;54;19947;-66
2022/08/14 08:22:57;;;;;;;;;;;;;;;25.53;37.93;98180.63;2618072;54;19961;-65
2022/08/14 08:25:35;;;;;;;;;;;;;;;25.68;37.13;98177.59;2618063;54;19950;-66
2022/08/14 08:28:12;;;;;;;;;;;;;;;25.85;36.26;98168.81;2618500;54;19994;-67
2022/08/14 08:30:55;;;;;;;;;;;;;;;25.93;36.19;98170.00;2618466;39;20463;-66
2022/08/14 08:33:26;;;;;;;;;;;;;;;26.01;35.79;98161.13;2618229;54;19955;-67
2022/08/14 08:36:02;;;;;;;;;;;;;;;26.15;35.75;98166.44;2618075;54;19978;-66
2022/08/14 08:38:31;;;;;;;;;;;;;;;26.24;36.32;98158.38;2617711;50;19939;-67
2022/08/14 08:41:21;;;;;;;;;;;;;;;26.41;35.32;98163.88;2621080;51;19946;-67
2022/08/14 08:43:53;;;;;;;;;;;;;;;26.51;34.32;98166.34;2618382;54;19946;-67
2022/08/14 08:46:24;;;;;;;;;;;;;;;26.56;34.89;98162.69;2618157;54;19942;-67
2022/08/14 08:48:55;;;;;;;;;;;;;;;26.67;34.21;98159.41;2618153;54;19939;-66
2022/08/14 08:51:24;;;;;;;;;;;;;;;26.75;34.35;98154.31;2618629;39;20443;-67
2022/08/14 08:54:02;;;;;;;;;;;;;;;26.82;34.22;98154.66;2618061;54;19938;-67
2022/08/14 08:56:36;;;;;;;;;;;;;;;26.92;33.27;98155.16;2618246;54;19938;-67
2022/08/14 08:59:20;;;;;;;;;;;;;;;26.87;32.87;98162.66;2618028;54;19942;-67
2022/08/14 09:01:56;;;;;;;;;;;;;;;26.80;33.37;98159.59;2617502;54;20030;-67
2022/08/14 09:04:26;;;;;;;;;;;;;;;26.91;33.45;98147.34;2618583;39;20421;-66
2022/08/14 09:06:56;;;;;;;;;;;;;;;27.00;33.58;98137.31;2617916;54;19950;-67
2022/08/14 09:09:50;;;;;;;;;;;;;;;27.19;32.28;98134.34;2619126;54;19966;-67
2022/08/14 09:12:28;;;;;;;;;;;;;;;27.22;32.63;98119.34;2623378;54;19954;-67
2022/08/14 09:15:05;;;;;;;;;;;;;;;27.31;32.33;98117.41;2623344;54;19991;-66
2022/08/14 09:17:41;;;;;;;;;;;;;;;27.45;32.09;98120.78;2623212;54;19939;-67
2022/08/14 09:20:11;;;;;;;;;;;;;;;27.56;31.62;98121.28;2623717;54;19938;-67
2022/08/14 09:22:41;;;;;;;;;;;;;;;27.60;31.56;98114.09;2621740;47;19982;-66
2022/08/14 09:25:17;;;;;;;;;;;;;;;27.74;30.76;98124.78;2620492;54;19939;-67
2022/08/14 09:28:07;;;;;;;;;;;;;;;27.77;30.44;98132.28;2617265;54;19943;-67
2022/08/14 09:30:40;;;;;;;;;;;;;;;27.88;30.96;98126.22;2618013;54;19946;-67
2022/08/14 09:33:23;;;;;;;;;;;;;;;27.99;29.77;98131.28;2617884;54;19947;-67
2022/08/14 09:35:59;;;;;;;;;;;;;;;28.03;30.58;98133.03;2617888;54;19965;-67
2022/08/14 09:38:34;;;;;;;;;;;;;;;28.17;30.55;98134.75;2617086;39;20322;-67
2022/08/14 09:41:12;;;;;;;;;;;;;;;28.48;29.51;98135.31;2617363;54;19949;-67
2022/08/14 09:43:45;;;;;;;;;;;;;;;28.59;29.24;98131.09;2617363;54;19939;-67
2022/08/14 09:46:19;;;;;;;;;;;;;;;28.76;28.24;98134.88;2617962;54;19950;-67
2022/08/14 09:48:59;;;;;;;;;;;;;;;28.91;27.32;98139.75;2618301;54;19950;-67
2022/08/14 09:51:30;;;;;;;;;;;;;;;28.99;27.13;98124.53;2617801;54;20026;-66
2022/08/14 09:54:15;;;;;;;;;;;;;;;28.96;27.14;98117.78;2618629;54;19947;-66
2022/08/14 09:56:52;;;;;;;;;;;;;;;28.97;26.66;98116.69;2618332;54;19961;-66
2022/08/14 09:59:26;;;;;;;;;;;;;;;28.99;26.65;98106.28;2618260;39;20333;-66
2022/08/14 10:01:59;;;;;;;;;;;;;;;29.06;26.66;98105.75;2617969;54;20533;-66
2022/08/14 10:04:30;;;;;;;;;;;;;;;29.11;26.77;98090.03;2617930;54;20441;-67
2022/08/14 10:07:05;;;;;;;;;;;;;;;29.03;26.36;98084.66;2617996;54;19950;-67
2022/08/14 10:09:47;;;;;;;;;;;;;;;29.06;26.57;98087.47;2617963;54;19947;-68
2022/08/14 10:12:43;;;;;;;;;;;;;;;29.10;26.66;98066.66;2617934;54;19939;-66
2022/08/14 10:15:18;;;;;;;;;;;;;;;29.38;25.98;98053.28;2619022;54;19953;-66
2022/08/14 10:17:52;;;;;;;;;;;;;;;29.36;26.09;98041.94;2619046;47;19975;-67
2022/08/14 10:20:33;;;;;;;;;;;;;;;29.32;26.24;98057.34;2621228;54;19951;-66
2022/08/14 10:23:14;;;;;;;;;;;;;;;29.28;26.04;98058.38;2623041;54;19962;-67
2022/08/14 10:25:49;;;;;;;;;;;;;;;29.31;25.93;98057.66;2623319;54;19946;-67
2022/08/14 10:28:20;;;;;;;;;;;;;;;29.29;25.74;98054.50;2617408;51;19938;-67
2022/08/14 10:31:18;;;;;;;;;;;;;;;29.31;25.71;98058.50;2617980;54;20034;-66
2022/08/14 10:34:03;;;;;;;;;;;;;;;29.42;25.38;98039.81;2618580;54;19939;-66
2022/08/14 10:36:42;;;;;;;;;;;;;;;29.56;25.40;98037.63;2617835;54;19950;-66
2022/08/14 10:39:18;;;;;;;;;;;;;;;29.61;25.79;98029.22;2617852;54;20071;-68
2022/08/14 10:41:49;;;;;;;;;;;;;;;29.67;25.55;98015.41;2618693;54;19947;-69
2022/08/14 10:44:24;;;;;;;;;;;;;;;29.71;25.02;98021.75;2620124;54;19993;-68
2022/08/14 10:47:01;;;;;;;;;;;;;;;29.73;25.29;98014.06;2622310;48;19951;-68
2022/08/14 10:50:00;;;;;;;;;;;;;;;29.83;25.50;98019.06;2623881;54;20001;-68
2022/08/14 10:52:34;;;;;;;;;;;;;;;29.90;25.12;98008.41;2621440;54;20039;-69
2022/08/14 10:55:08;;;;;;;;;;;;;;;29.99;24.85;98008.31;2619353;54;19945;-68
2022/08/14 10:57:49;;;;;;;;;;;;;;;29.96;25.09;98004.31;2618342;54;19947;-67
2022/08/14 11:00:21;;;;;;;;;;;;;;;29.91;25.12;98001.81;2618381;54;19938;-67
2022/08/14 11:03:06;;;;;;;;;;;;;;;30.07;25.10;97996.50;2618486;54;19946;-66
2022/08/14 11:05:46;;;;;;;;;;;;;;;30.25;24.56;97989.72;2618356;54;19942;-65
2022/08/14 11:08:18;;;;;;;;;;;;;;;30.24;24.17;97998.22;2617880;47;19942;-66
2022/08/14 11:10:49;;;;;;;;;;;;;;;30.03;24.43;97996.38;2618381;54;19946;-66
2022/08/14 11:13:22;;;;;;;;;;;;;;;30.04;24.62;97995.22;2618370;54;19977;-67
2022/08/14 11:15:54;;;;;;;;;;;;;;;30.21;24.92;98007.06;2618373;54;19938;-67
2022/08/14 11:18:25;;;;;;;;;;;;;;;30.32;24.58;98014.47;2618182;54;19952;-67
2022/08/14 11:21:15;;;;;;;;;;;;;;;30.24;24.38;98012.66;2617802;47;19946;-67
2022/08/14 11:23:48;;;;;;;;;;;;;;;30.25;24.84;98007.97;2618447;54;19946;-68
2022/08/14 11:26:23;;;;;;;;;;;;;;;30.35;24.87;98004.81;2618197;54;19969;-68
2022/08/14 11:28:52;;;;;;;;;;;;;;;30.48;24.26;98014.56;2618356;54;19965;-68
2022/08/14 11:31:24;;;;;;;;;;;;;;;30.47;24.40;98004.81;2618508;54;20054;-67
2022/08/14 11:33:56;;;;;;;;;;;;;;;30.50;24.50;98009.56;2618303;54;19953;-67
2022/08/14 11:36:30;;;;;;;;;;;;;;;30.63;24.39;98001.38;2618064;54;19951;-68
2022/08/14 11:39:20;;;;;;;;;;;;;;;30.66;24.56;97992.47;2618375;54;19946;-68
2022/08/14 11:42:05;;;;;;;;;;;;;;;30.76;23.66;97989.31;2618737;39;20342;-68
2022/08/14 11:44:55;;;;;;;;;;;;;;;30.85;23.87;97992.69;2618416;54;20033;-71
2022/08/14 11:47:28;;;;;;;;;;;;;;;30.84;24.10;97981.00;2618283;54;19938;-67
2022/08/14 11:50:16;;;;;;;;;;;;;;;30.74;24.37;97986.13;2618308;54;19954;-68
2022/08/14 11:53:08;;;;;;;;;;;;;;;30.89;24.35;97974.50;2618364;54;19938;-68
2022/08/14 11:55:41;;;;;;;;;;;;;;;30.89;23.71;97976.44;2618166;54;19939;-67
2022/08/14 11:58:12;;;;;;;;;;;;;;;30.83;24.31;97970.44;2618001;54;20437;-68
2022/08/14 12:00:54;;;;;;;;;;;;;;;30.97;24.48;97964.56;2617796;54;19953;-67
2022/08/14 12:03:36;;;;;;;;;;;;;;;30.96;24.45;97963.78;2618022;54;19977;-67
2022/08/14 12:06:21;;;;;;;;;;;;;;;31.01;24.41;97957.28;2617223;54;19947;-68
2022/08/14 12:09:10;;;;;;;;;;;;;;;31.04;24.92;97957.38;2618185;54;19946;-69
2022/08/14 12:11:44;;;;;;;;;;;;;;;31.10;23.17;97952.47;2618216;54;19945;-68
2022/08/14 12:14:16;;;;;;;;;;;;;;;31.15;23.48;97945.94;2618155;54;20051;-68
2022/08/14 12:17:06;;;;;;;;;;;;;;;31.43;23.12;97944.00;2617363;47;19939;-68
2022/08/14 12:19:45;;;;;;;;;;;;;;;31.34;22.83;97940.66;2617489;54;20079;-69
2022/08/14 12:22:20;;;;;;;;;;;;;;;31.51;22.61;97942.25;2618038;54;19939;-69
2022/08/14 12:25:01;;;;;;;;;;;;;;;31.46;22.86;97946.03;2618148;54;19945;-67
2022/08/14 12:27:42;;;;;;;;;;;;;;;31.46;22.23;97947.97;2618080;54;19939;-66
2022/08/14 12:30:27;;;;;;;;;;;;;;;31.38;22.41;97938.81;2618165;54;19953;-68
2022/08/14 12:33:07;;;;;;;;;;;;;;;31.35;22.77;97949.63;2618184;54;19970;-67
2022/08/14 12:35:41;;;;;;;;;;;;;;;31.35;22.80;97936.78;2618447;54;19943;-66
2022/08/14 12:38:11;;;;;;;;;;;;;;;31.29;23.34;97924.53;2617241;47;19953;-66
2022/08/14 12:40:52;;;;;;;;;;;;;;;31.50;22.86;97921.56;2618040;54;19946;-68
2022/08/14 12:43:24;;;;;;;;;;;;;;;31.74;22.45;97917.84;2618067;54;19939;-67
2022/08/14 12:45:55;;;;;;;;;;;;;;;31.87;21.50;97905.69;2618148;54;19954;-67
2022/08/14 12:48:28;;;;;;;;;;;;;;;31.95;21.69;97909.41;2623583;54;19938;-67
2022/08/14 12:51:00;;;;;;;;;;;;;;;31.97;21.54;97904.38;2624056;54;19946;-67
2022/08/14 12:53:38;;;;;;;;;;;;;;;31.97;21.55;97898.91;2623627;54;19951;-68
2022/08/14 12:56:12;;;;;;;;;;;;;;;32.02;21.22;97901.38;2618621;54;19946;-68
2022/08/14 12:59:01;;;;;;;;;;;;;;;32.12;21.34;97905.47;2618857;31;20396;-69
2022/08/14 13:01:32;;;;;;;;;;;;;;;32.24;21.48;97892.47;2618099;54;19939;-69
2022/08/14 13:04:22;;;;;;;;;;;;;;;32.49;21.26;97878.56;2618435;54;19958;-68
2022/08/14 13:06:53;;;;;;;;;;;;;;;32.74;20.58;97884.53;2618186;54;20450;-67
2022/08/14 13:09:27;;;;;;;;;;;;;;;32.70;20.65;97880.94;2618046;54;19946;-69
2022/08/14 13:12:09;;;;;;;;;;;;;;;32.69;20.59;97871.16;2617930;54;20466;-69
2022/08/14 13:15:00;;;;;;;;;;;;;;;32.71;20.04;97874.34;2618199;54;20438;-68
2022/08/14 13:17:41;;;;;;;;;;;;;;;32.84;19.83;97874.97;2617279;54;19954;-68
2022/08/14 13:20:12;;;;;;;;;;;;;;;32.97;20.15;97868.19;2617323;54;19969;-67
2022/08/14 13:22:53;;;;;;;;;;;;;;;33.07;20.06;97866.78;2618235;54;19963;-70
2022/08/14 13:25:26;;;;;;;;;;;;;;;33.30;20.36;97864.88;2618161;54;20084;-69
2022/08/14 13:27:59;;;;;;;;;;;;;;;33.58;19.41;97853.63;2618093;54;19966;-70
2022/08/14 13:30:28;;;;;;;;;;;;;;;33.64;19.68;97857.63;2617415;47;19947;-70
2022/08/14 13:32:59;;;;;;;;;;;;;;;33.85;19.47;97854.44;2617889;54;19945;-68
2022/08/14 13:35:29;;;;;;;;;;;;;;;33.95;19.39;97853.78;2618274;39;20397;-68
2022/08/14 13:38:00;;;;;;;;;;;;;;;33.87;18.88;97845.81;2617778;54;19939;-69
2022/08/14 13:40:30;;;;;;;;;;;;;;;33.87;19.54;97845.81;2617769;54;19947;-69
2022/08/14 13:43:03;;;;;;;;;;;;;;;34.00;19.08;97842.50;2618440;39;20358;-69
2022/08/14 13:45:32;;;;;;;;;;;;;;;34.06;18.79;97839.47;2618026;54;19939;-71
2022/08/14 13:48:22;;;;;;;;;;;;;;;33.76;18.62;97829.22;2617859;54;19973;-68
2022/08/14 13:51:06;;;;;;;;;;;;;;;33.52;19.10;97827.69;2617895;54;19966;-69
2022/08/14 13:53:49;;;;;;;;;;;;;;;33.45;19.23;97825.63;2617345;47;19989;-69
2022/08/14 13:56:39;;;;;;;;;;;;;;;33.74;19.15;97823.31;2617347;47;20054;-70
2022/08/14 13:59:11;;;;;;;;;;;;;;;33.94;18.59;97818.50;2617893;54;19939;-70
2022/08/14 14:01:49;;;;;;;;;;;;;;;34.00;18.77;97817.84;2617377;54;20053;-68
2022/08/14 14:04:20;;;;;;;;;;;;;;;34.16;18.76;97814.13;2617799;54;19975;-69
2022/08/14 14:06:51;;;;;;;;;;;;;;;34.19;18.78;97803.19;2617688;54;19970;-68
2022/08/14 14:09:27;;;;;;;;;;;;;;;34.18;18.08;97806.31;2617425;54;19942;-69
2022/08/14 14:12:07;;;;;;;;;;;;;;;33.94;18.73;97802.84;2617850;54;19975;-69
2022/08/14 14:15:00;;;;;;;;;;;;;;;33.95;18.63;97807.16;2617967;54;20054;-67
2022/08/14 14:17:33;;;;;;;;;;;;;;;33.90;18.64;97812.19;2617631;54;19938;-70
2022/08/14 14:20:05;;;;;;;;;;;;;;;33.86;18.81;97805.88;2617825;54;19997;-69
2022/08/14 14:22:37;;;;;;;;;;;;;;;33.98;18.60;97800.19;2618169;39;20396;-69
2022/08/14 14:25:27;;;;;;;;;;;;;;;34.19;18.28;97791.44;2617794;54;20037;-69
2022/08/14 14:28:15;;;;;;;;;;;;;;;34.22;18.33;97796.97;2617766;54;19981;-68
2022/08/14 14:30:55;;;;;;;;;;;;;;;34.11;17.53;97792.53;2617736;54;19977;-68
2022/08/14 14:33:29;;;;;;;;;;;;;;;33.88;18.45;97795.31;2617663;54;19981;-68
2022/08/14 14:36:19;;;;;;;;;;;;;;;33.83;17.82;97801.13;2617345;54;19954;-68
2022/08/14 14:38:52;;;;;;;;;;;;;;;33.74;18.11;97796.69;2617717;54;19946;-69
2022/08/14 14:41:23;;;;;;;;;;;;;;;33.70;17.96;97797.81;2617674;54;19946;-69
2022/08/14 14:43:56;;;;;;;;;;;;;;;33.59;18.12;97797.66;2617747;54;19946;-68
2022/08/14 14:46:31;;;;;;;;;;;;;;;33.73;17.96;97791.59;2618745;54;19950;-68
2022/08/14 14:49:07;;;;;;;;;;;;;;;33.64;17.77;97793.81;2619064;54;19951;-67
2022/08/14 14:51:43;;;;;;;;;;;;;;;33.51;17.58;97783.06;2617798;54;19946;-69
2022/08/14 14:54:15;;;;;;;;;;;;;;;33.39;18.00;97779.69;2617718;54;19939;-70
2022/08/14 14:56:46;;;;;;;;;;;;;;;33.27;18.01;97788.91;2618095;39;20343;-69
2022/08/14 14:59:22;;;;;;;;;;;;;;;33.15;18.08;97778.16;2618386;39;20341;-69
2022/08/14 15:01:55;;;;;;;;;;;;;;;33.22;17.92;97786.50;2617811;54;19954;-69
2022/08/14 15:04:25;;;;;;;;;;;;;;;33.05;18.18;97782.31;2617529;54;20415;-69
2022/08/14 15:06:54;;;;;;;;;;;;;;;33.10;18.18;97789.41;2617617;54;19939;-68
2022/08/14 15:09:24;;;;;;;;;;;;;;;33.00;18.34;97775.19;2617562;39;20347;-68
2022/08/14 15:11:53;;;;;;;;;;;;;;;32.97;18.80;97780.59;2617705;54;19938;-68
2022/08/14 15:14:23;;;;;;;;;;;;;;;32.77;18.77;97777.09;2620358;54;20461;-67
2022/08/14 15:17:15;;;;;;;;;;;;;;;32.74;19.04;97775.91;2623259;54;20453;-68
2022/08/14 15:19:45;;;;;;;;;;;;;;;32.71;19.01;97781.31;2623270;39;20341;-68
2022/08/14 15:22:27;;;;;;;;;;;;;;;32.61;18.78;97781.88;2620940;47;19951;-68
2022/08/14 15:24:58;;;;;;;;;;;;;;;32.62;18.77;97780.72;2620488;54;19947;-67
2022/08/14 15:27:30;;;;;;;;;;;;;;;32.66;18.87;97778.84;2617897;39;20326;-67
2022/08/14 15:30:00;;;;;;;;;;;;;;;32.74;18.91;97780.56;2618078;54;19951;-67
2022/08/14 15:32:33;;;;;;;;;;;;;;;32.96;18.74;97779.81;2617719;54;19946;-68
2022/08/14 15:35:03;;;;;;;;;;;;;;;33.00;18.57;97774.41;2617044;47;19950;-68
2022/08/14 15:37:37;;;;;;;;;;;;;;;33.14;18.77;97773.84;2617612;54;19943;-68
2022/08/14 15:40:11;;;;;;;;;;;;;;;33.32;18.64;97769.44;2618361;54;20419;-68
2022/08/14 15:42:50;;;;;;;;;;;;;;;33.63;18.36;97767.56;2618423;54;20490;-68
2022/08/14 15:45:21;;;;;;;;;;;;;;;33.63;17.94;97770.31;2617740;46;19939;-66
2022/08/14 15:47:55;;;;;;;;;;;;;;;33.41;18.04;97767.22;2617409;54;20448;-68
2022/08/14 15:50:27;;;;;;;;;;;;;;;33.37;18.16;97758.16;2618413;54;19975;-67
2022/08/14 15:52:57;;;;;;;;;;;;;;;33.47;18.20;97757.56;2618301;54;19953;-67
2022/08/14 15:55:29;;;;;;;;;;;;;;;33.65;18.40;97759.78;2618575;54;19946;-68
2022/08/14 15:57:59;;;;;;;;;;;;;;;33.49;18.16;97752.50;2618159;54;19947;-68
2022/08/14 16:03:21;;;;;;;;;;;;;;;32.97;18.36;97755.97;2618387;54;19939;-67
2022/08/14 16:05:56;;;;;;;;;;;;;;;32.86;18.78;97749.47;2618173;54;19957;-66
2022/08/14 16:08:26;;;;;;;;;;;;;;;32.85;18.27;97748.69;2618260;54;19961;-67
2022/08/14 16:10:59;;;;;;;;;;;;;;;32.94;19.11;97748.47;2618256;54;19943;-68
2022/08/14 16:13:30;;;;;;;;;;;;;;;32.90;18.46;97745.66;2617690;47;19939;-69
2022/08/14 16:16:12;;;;;;;;;;;;;;;32.90;18.91;97745.66;2618040;54;20461;-68
2022/08/14 16:19:07;;;;;;;;;;;;;;;32.97;18.74;97748.53;2617583;47;20034;-67
2022/08/14 16:21:40;;;;;;;;;;;;;;;32.85;19.16;97747.91;2618132;54;19954;-66
2022/08/14 16:24:31;;;;;;;;;;;;;;;32.90;18.76;97742.91;2618362;54;19939;-66
2022/08/14 16:27:02;;;;;;;;;;;;;;;32.94;18.92;97740.28;2617480;54;19983;-66
2022/08/14 16:29:34;;;;;;;;;;;;;;;32.87;18.93;97740.94;2618939;31;20407;-66
2022/08/14 16:32:04;;;;;;;;;;;;;;;33.04;19.33;97728.72;2618268;54;19938;-66
2022/08/14 16:34:56;;;;;;;;;;;;;;;33.06;18.84;97736.56;2617853;54;20022;-66
2022/08/14 16:37:25;;;;;;;;;;;;;;;32.81;19.08;97731.44;2618116;54;19945;-66
2022/08/14 16:39:59;;;;;;;;;;;;;;;32.64;19.28;97737.38;2618114;54;19946;-67
2022/08/14 16:42:32;;;;;;;;;;;;;;;32.57;19.26;97735.31;2618071;54;19963;-67
2022/08/14 16:45:25;;;;;;;;;;;;;;;32.49;19.13;97737.13;2617506;54;19954;-67
2022/08/14 16:47:55;;;;;;;;;;;;;;;32.41;19.47;97745.56;2617557;54;19946;-68
2022/08/14 16:50:28;;;;;;;;;;;;;;;32.25;19.70;97726.47;2618061;54;19947;-67
2022/08/14 16:53:13;;;;;;;;;;;;;;;32.18;19.62;97727.16;2618029;54;19946;-67
2022/08/14 16:55:46;;;;;;;;;;;;;;;32.06;19.56;97733.56;2618117;54;19939;-66
2022/08/14 16:58:26;;;;;;;;;;;;;;;31.95;19.96;97729.81;2618143;54;19938;-66
2022/08/14 17:01:12;;;;;;;;;;;;;;;31.82;19.84;97733.81;2618151;54;19938;-66
2022/08/14 17:03:55;;;;;;;;;;;;;;;31.77;19.99;97725.91;2617949;54;19947;-67
2022/08/14 17:06:39;;;;;;;;;;;;;;;31.72;20.09;97726.97;2618001;54;19976;-67
2022/08/14 17:09:28;;;;;;;;;;;;;;;31.62;20.14;97716.59;2618100;54;20029;-67
2022/08/14 17:12:04;;;;;;;;;;;;;;;31.59;19.97;97728.22;2618096;54;20422;-66
2022/08/14 17:14:51;;;;;;;;;;;;;;;31.49;20.06;97732.31;2618053;54;19946;-66
2022/08/14 17:17:21;;;;;;;;;;;;;;;31.41;19.91;97729.78;2619357;39;20488;-66
2022/08/14 17:19:52;;;;;;;;;;;;;;;31.40;20.00;97729.00;2618095;54;19947;-68
2022/08/14 17:22:25;;;;;;;;;;;;;;;31.33;19.87;97726.09;2618063;54;19946;-67
2022/08/14 17:24:55;;;;;;;;;;;;;;;31.29;20.17;97720.56;2618013;54;20431;-66
2022/08/14 17:27:34;;;;;;;;;;;;;;;31.20;20.20;97710.97;2617963;54;19989;-65
2022/08/14 17:30:05;;;;;;;;;;;;;;;31.14;19.83;97718.59;2617536;47;19974;-66
2022/08/14 17:32:55;;;;;;;;;;;;;;;31.09;20.05;97716.16;2618225;54;20483;-66
2022/08/14 17:35:32;;;;;;;;;;;;;;;31.04;19.97;97716.44;2618661;54;20482;-68
2022/08/14 17:38:22;;;;;;;;;;;;;;;30.98;20.08;97717.81;2618587;54;20446;-66
2022/08/14 17:41:23;;;;;;;;;;;;;;;30.95;20.06;97715.81;2619325;54;19951;-66
2022/08/14 17:44:17;;;;;;;;;;;;;;;30.98;19.70;97715.88;2622088;54;19954;-67
2022/08/14 17:46:51;;;;;;;;;;;;;;;30.99;19.88;97712.03;2622667;54;19939;-67
2022/08/14 17:49:27;;;;;;;;;;;;;;;30.94;19.91;97719.69;2622531;54;19999;-67
2022/08/14 17:52:05;;;;;;;;;;;;;;;30.82;20.08;97720.56;2620348;54;20446;-67
2022/08/14 17:54:46;;;;;;;;;;;;;;;30.75;20.15;97723.91;2618902;54;19969;-66